Time;durP1;ratioP1;P1;durP2;ratioP2;P2;SDS_P1;SDS_P2;PMS_P1;PMS_P2;Temp;Humidity;BMP_temperature;BMP_pressure;BME280_temperature;BME280_humidity;BME280_pressure;Samples;Min_cycle;Max_cycle;Signal;HPM_P1;HPM_P2
2024/01/14 00:00:02;;;;;;;5.85;2.90;;;0.30;99.50;;;;;;5069683;28;20378;-76
2024/01/14 00:02:27;;;;;;;6.43;3.08;;;0.30;99.50;;;;;;5050375;28;21640;-76
2024/01/14 00:04:53;;;;;;;5.80;2.95;;;0.40;99.50;;;;;;5069925;28;20047;-76
2024/01/14 00:07:19;;;;;;;5.90;2.95;;;0.50;99.50;;;;;;5071748;28;20047;-76
2024/01/14 00:09:44;;;;;;;6.78;2.90;;;0.50;99.20;;;;;;5072964;28;20043;-76
2024/01/14 00:12:10;;;;;;;5.47;2.50;;;0.30;99.50;;;;;;5074229;28;20032;-76
2024/01/14 00:14:36;;;;;;;4.82;2.67;;;0.10;99.80;;;;;;5075093;28;20093;-76
2024/01/14 00:17:01;;;;;;;5.45;2.95;;;-0.10;99.90;;;;;;5072573;28;20089;-76
2024/01/14 00:19:27;;;;;;;7.95;3.15;;;0.10;99.90;;;;;;5073360;28;20047;-76
2024/01/14 00:21:53;;;;;;;5.93;3.13;;;0.20;99.90;;;;;;5075918;28;20047;-76
2024/01/14 00:24:18;;;;;;;6.80;3.20;;;0.20;99.80;;;;;;5075883;28;20047;-76
2024/01/14 00:26:44;;;;;;;6.32;2.67;;;0.40;99.60;;;;;;5074918;28;21013;-76
2024/01/14 00:29:10;;;;;;;5.53;3.05;;;0.50;99.40;;;;;;5074449;28;20462;-76
2024/01/14 00:31:35;;;;;;;5.10;2.60;;;0.50;99.30;;;;;;5076365;28;20478;-76
2024/01/14 00:34:01;;;;;;;4.53;2.20;;;0.50;99.20;;;;;;5075141;28;20504;-76
2024/01/14 00:36:26;;;;;;;9.05;3.10;;;0.50;99.30;;;;;;5075018;28;20089;-76
2024/01/14 00:38:52;;;;;;;6.70;3.00;;;0.70;98.70;;;;;;5074166;28;20024;-76
2024/01/14 00:41:20;;;;;;;5.60;2.80;;;0.50;99.50;;;;;;5074532;28;20036;-76
2024/01/14 00:43:46;;;;;;;5.57;2.70;;;0.30;99.80;;;;;;5075178;28;20714;-76
2024/01/14 00:46:12;;;;;;;6.45;3.08;;;0.10;99.90;;;;;;5075666;28;20118;-77
2024/01/14 00:48:37;;;;;;;6.78;2.78;;;-0.10;99.90;;;;;;5074228;28;20028;-76
2024/01/14 00:51:04;;;;;;;6.47;3.47;;;-0.20;99.90;;;;;;5073895;28;20043;-76
2024/01/14 00:53:29;;;;;;;6.78;2.70;;;-0.10;99.90;;;;;;5074535;28;20032;-76
2024/01/14 00:55:55;;;;;;;4.55;2.28;;;-0.20;99.90;;;;;;5073999;28;20093;-77
2024/01/14 00:58:21;;;;;;;4.80;2.45;;;-0.10;99.90;;;;;;5072903;28;20092;-77
2024/01/14 01:00:47;;;;;;;6.38;2.65;;;0.00;99.90;;;;;;5074953;28;20024;-76
2024/01/14 01:03:13;;;;;;;6.13;2.50;;;0.10;99.90;;;;;;5072963;28;20036;-76
2024/01/14 01:05:38;;;;;;;4.82;2.50;;;0.10;99.90;;;;;;5074628;28;20039;-77
2024/01/14 01:08:04;;;;;;;6.53;3.13;;;0.00;99.90;;;;;;5074885;28;20191;-77
2024/01/14 01:10:31;;;;;;;7.15;3.30;;;0.10;99.90;;;;;;5073670;28;20035;-76
2024/01/14 01:12:56;;;;;;;5.43;2.70;;;0.30;99.90;;;;;;5072730;28;20032;-76
2024/01/14 01:15:22;;;;;;;6.68;2.80;;;0.30;99.70;;;;;;5073301;28;20066;-76
2024/01/14 01:17:48;;;;;;;5.38;3.05;;;0.10;99.90;;;;;;5073528;28;20043;-76
2024/01/14 01:20:13;;;;;;;6.37;3.00;;;0.10;99.90;;;;;;5073492;28;20036;-76
2024/01/14 01:22:39;;;;;;;6.18;2.97;;;0.20;99.70;;;;;;5071764;28;20089;-77
2024/01/14 01:25:05;;;;;;;6.57;3.43;;;0.10;99.70;;;;;;5072709;28;20039;-76
2024/01/14 01:27:30;;;;;;;6.53;2.95;;;-0.10;99.90;;;;;;5073147;28;20047;-76
2024/01/14 01:29:57;;;;;;;6.07;3.00;;;-0.10;99.90;;;;;;5072031;28;20169;-76
2024/01/14 01:32:22;;;;;;;6.43;2.47;;;-0.20;99.90;;;;;;5073798;28;20127;-76
2024/01/14 01:34:48;;;;;;;6.35;2.90;;;-0.20;99.90;;;;;;5074745;28;20138;-76
2024/01/14 01:37:14;;;;;;;7.00;2.90;;;-0.20;99.90;;;;;;5071365;28;20474;-76
2024/01/14 01:39:40;;;;;;;6.97;2.87;;;-0.10;99.90;;;;;;5072790;28;20039;-77
2024/01/14 01:42:06;;;;;;;5.90;2.67;;;-0.10;99.90;;;;;;5073765;28;20024;-76
2024/01/14 01:44:33;;;;;;;4.68;2.55;;;-0.20;99.90;;;;;;5071616;28;20044;-76
2024/01/14 01:47:00;;;;;;;5.38;2.40;;;-0.20;99.90;;;;;;5074233;28;20040;-76
2024/01/14 01:49:27;;;;;;;4.25;2.42;;;-0.10;99.90;;;;;;5074047;28;20032;-76
2024/01/14 01:51:53;;;;;;;6.03;3.23;;;-0.10;99.90;;;;;;5069318;28;20040;-76
2024/01/14 01:54:24;;;;;;;5.63;2.50;;;-0.20;99.90;;;;;;5054468;28;20468;-76
2024/01/14 01:56:52;;;;;;;6.22;2.55;;;0.00;99.90;;;;;;5073478;28;20024;-76
2024/01/14 01:59:18;;;;;;;5.50;2.73;;;-0.20;99.90;;;;;;5073010;28;20103;-76
2024/01/14 02:01:46;;;;;;;5.97;2.83;;;-0.10;99.90;;;;;;5071192;28;20024;-76
2024/01/14 02:04:14;;;;;;;5.30;2.30;;;0.00;99.90;;;;;;5072620;28;20034;-76
2024/01/14 02:06:41;;;;;;;4.97;2.60;;;-0.10;99.90;;;;;;5072861;28;20027;-76
2024/01/14 02:09:10;;;;;;;5.10;2.10;;;-0.10;99.90;;;;;;5072843;28;20653;-76
2024/01/14 02:11:36;;;;;;;5.43;2.70;;;-0.10;99.90;;;;;;5069557;28;20043;-76
2024/01/14 02:14:05;;;;;;;4.83;2.47;;;0.00;99.90;;;;;;5073947;28;20036;-76
2024/01/14 02:16:31;;;;;;;5.28;2.47;;;-0.10;99.80;;;;;;5072053;28;20363;-76
2024/01/14 02:18:57;;;;;;;4.57;2.05;;;-0.20;99.90;;;;;;5072535;28;20043;-76
2024/01/14 02:21:27;;;;;;;5.40;2.40;;;-0.10;99.80;;;;;;5073341;28;20115;-76
2024/01/14 02:24:03;;;;;;;6.23;2.40;;;-0.10;99.70;;;;;;5072518;28;20032;-77
2024/01/14 02:26:29;;;;;;;4.23;1.93;;;0.00;99.40;;;;;;5072532;28;20031;-76
2024/01/14 02:28:55;;;;;;;4.37;2.47;;;0.10;99.50;;;;;;5072333;28;20398;-76
2024/01/14 02:31:20;;;;;;;6.37;2.73;;;0.00;99.60;;;;;;5072657;28;20360;-76
2024/01/14 02:33:46;;;;;;;5.30;2.13;;;0.00;99.60;;;;;;5071583;28;20052;-76
2024/01/14 02:36:11;;;;;;;8.13;2.60;;;-0.30;99.90;;;;;;5073128;28;20039;-76
2024/01/14 02:38:37;;;;;;;5.80;2.77;;;-0.40;99.90;;;;;;5072733;28;20610;-76
2024/01/14 02:41:03;;;;;;;4.68;1.95;;;-0.20;99.80;;;;;;5073155;28;20033;-76
2024/01/14 02:43:28;;;;;;;4.97;2.40;;;-0.40;99.90;;;;;;5070951;28;20695;-76
2024/01/14 02:45:54;;;;;;;4.33;2.07;;;-0.40;99.90;;;;;;5071004;28;20081;-76
2024/01/14 02:48:20;;;;;;;4.33;2.33;;;-0.20;99.60;;;;;;5071574;28;20119;-76
2024/01/14 02:50:45;;;;;;;5.10;2.70;;;-0.30;99.90;;;;;;5072314;28;20139;-76
2024/01/14 02:53:11;;;;;;;4.60;2.10;;;-0.30;99.90;;;;;;5070894;28;20059;-76
2024/01/14 02:55:37;;;;;;;6.50;2.17;;;-0.30;99.90;;;;;;5071661;28;20063;-76
2024/01/14 02:58:02;;;;;;;3.85;2.17;;;-0.20;99.60;;;;;;5071662;28;20113;-76
2024/01/14 03:00:28;;;;;;;5.38;2.08;;;-0.20;99.70;;;;;;5072478;28;20048;-76
2024/01/14 03:02:54;;;;;;;3.47;1.97;;;-0.20;99.50;;;;;;5071606;28;20390;-75
2024/01/14 03:05:19;;;;;;;6.23;2.20;;;-0.10;99.90;;;;;;5071450;28;20762;-77
2024/01/14 03:07:45;;;;;;;3.90;1.93;;;-0.30;99.90;;;;;;5072423;28;20031;-76
2024/01/14 03:10:10;;;;;;;4.40;2.10;;;-0.30;99.90;;;;;;5069946;28;20040;-77
2024/01/14 03:12:36;;;;;;;5.68;2.40;;;-0.50;99.90;;;;;;5071522;28;20043;-77
2024/01/14 03:15:02;;;;;;;5.93;2.33;;;-0.50;99.90;;;;;;5073064;28;20052;-77
2024/01/14 03:17:27;;;;;;;5.40;2.33;;;-0.50;99.90;;;;;;5076530;28;20150;-76
2024/01/14 03:19:53;;;;;;;5.47;2.13;;;-0.60;99.90;;;;;;5077068;28;20047;-76
2024/01/14 03:22:19;;;;;;;4.07;2.07;;;-0.80;99.90;;;;;;5078304;28;20043;-76
2024/01/14 03:24:44;;;;;;;3.57;1.53;;;-0.90;99.90;;;;;;5075668;28;20027;-76
2024/01/14 03:27:10;;;;;;;4.43;2.07;;;-0.60;99.90;;;;;;5076494;28;20036;-77
2024/01/14 03:29:36;;;;;;;4.17;2.20;;;-0.80;99.90;;;;;;5075209;28;20070;-76
2024/01/14 03:32:01;;;;;;;4.43;2.30;;;-0.70;99.90;;;;;;5076505;28;20036;-76
2024/01/14 03:34:27;;;;;;;6.03;2.40;;;-0.90;99.90;;;;;;5074559;28;20040;-76
2024/01/14 03:36:53;;;;;;;5.70;2.20;;;-0.90;99.90;;;;;;5076765;28;20039;-76
2024/01/14 03:39:18;;;;;;;4.23;1.77;;;-1.00;99.90;;;;;;5078463;28;20119;-76
2024/01/14 03:41:44;;;;;;;4.43;2.50;;;-0.90;99.90;;;;;;5074073;28;20032;-76
2024/01/14 03:44:10;;;;;;;6.17;2.20;;;-0.70;99.90;;;;;;5075136;28;20055;-76
2024/01/14 03:46:36;;;;;;;4.20;1.90;;;-0.80;99.90;;;;;;5074236;28;20474;-76
2024/01/14 03:49:01;;;;;;;4.72;2.22;;;-0.80;99.90;;;;;;5074775;28;20036;-76
2024/01/14 03:51:27;;;;;;;4.97;2.25;;;-0.90;99.90;;;;;;5075972;28;20036;-77
2024/01/14 03:53:53;;;;;;;3.47;1.80;;;-0.90;99.90;;;;;;5077007;28;20045;-77
2024/01/14 03:56:19;;;;;;;5.37;1.87;;;-1.00;99.90;;;;;;5076492;28;20032;-77
2024/01/14 03:58:44;;;;;;;4.53;2.13;;;-1.00;99.90;;;;;;5075919;28;20040;-77
2024/01/14 04:01:17;;;;;;;4.30;2.30;;;-0.90;99.90;;;;;;5076787;28;20078;-77
2024/01/14 04:03:43;;;;;;;4.17;2.20;;;-0.90;99.90;;;;;;5069018;28;20031;-77
2024/01/14 04:06:09;;;;;;;3.87;1.80;;;-0.90;99.90;;;;;;5070300;28;20474;-76
2024/01/14 04:08:34;;;;;;;4.63;2.00;;;-0.80;99.90;;;;;;5073730;28;20101;-77
2024/01/14 04:11:00;;;;;;;4.17;1.60;;;-0.80;99.90;;;;;;5069555;28;20037;-77
2024/01/14 04:13:26;;;;;;;5.43;2.53;;;-0.60;99.90;;;;;;5070177;28;20021;-77
2024/01/14 04:15:51;;;;;;;5.37;2.50;;;-0.70;99.90;;;;;;5071764;28;20444;-77
2024/01/14 04:18:17;;;;;;;5.53;2.27;;;-0.70;99.90;;;;;;5068975;28;20502;-76
2024/01/14 04:20:43;;;;;;;4.37;2.30;;;-0.70;99.90;;;;;;5067858;28;20426;-77
2024/01/14 04:23:09;;;;;;;4.72;2.10;;;-0.80;99.90;;;;;;5070078;28;20039;-77
2024/01/14 04:25:34;;;;;;;5.97;2.67;;;-0.90;99.90;;;;;;5070795;28;21020;-78
2024/01/14 04:28:01;;;;;;;4.53;2.13;;;-0.90;99.90;;;;;;5067877;28;20038;-77
2024/01/14 04:30:27;;;;;;;5.20;2.63;;;-0.90;99.90;;;;;;5051794;28;20390;-77
2024/01/14 04:32:53;;;;;;;5.47;2.30;;;-0.90;99.90;;;;;;5072721;28;20035;-77
2024/01/14 04:35:18;;;;;;;6.37;2.17;;;-0.90;99.90;;;;;;5071550;28;20497;-77
2024/01/14 04:37:44;;;;;;;4.73;1.93;;;-1.00;99.90;;;;;;5070448;28;20036;-77
2024/01/14 04:40:10;;;;;;;3.80;1.95;;;-1.00;99.90;;;;;;5072721;28;20024;-77
2024/01/14 04:42:36;;;;;;;4.10;2.13;;;-1.00;99.90;;;;;;5071753;28;20962;-76
2024/01/14 04:45:01;;;;;;;5.53;2.50;;;-0.90;99.90;;;;;;5070548;28;20119;-77
2024/01/14 04:47:27;;;;;;;4.70;2.53;;;-0.70;99.90;;;;;;5069232;28;20054;-77
2024/01/14 04:49:52;;;;;;;4.40;2.40;;;-0.70;99.90;;;;;;5067138;28;20118;-77
2024/01/14 04:52:18;;;;;;;5.13;2.23;;;-0.90;99.90;;;;;;5069852;28;20120;-76
2024/01/14 04:54:44;;;;;;;6.03;2.53;;;-1.00;99.90;;;;;;5071546;28;20059;-77
2024/01/14 04:57:09;;;;;;;3.10;1.63;;;-1.00;99.90;;;;;;5069970;28;20038;-77
2024/01/14 04:59:35;;;;;;;5.50;2.20;;;-1.20;99.90;;;;;;5071487;28;21314;-76
2024/01/14 05:02:00;;;;;;;4.90;1.90;;;-1.10;99.90;;;;;;5071354;28;20119;-77
2024/01/14 05:04:26;;;;;;;4.73;2.00;;;-0.90;99.90;;;;;;5069729;28;20670;-77
2024/01/14 05:06:53;;;;;;;6.07;2.10;;;-0.80;99.90;;;;;;5068964;28;20493;-77
2024/01/14 05:09:21;;;;;;;5.83;2.60;;;-0.80;99.90;;;;;;5071491;28;20028;-76
2024/01/14 05:11:47;;;;;;;4.50;2.17;;;-0.90;99.90;;;;;;5068065;28;20506;-76
2024/01/14 05:14:13;;;;;;;5.17;2.33;;;-0.80;99.90;;;;;;5070132;28;20037;-76
2024/01/14 05:16:38;;;;;;;4.60;2.00;;;-0.80;99.90;;;;;;5070198;28;20414;-76
2024/01/14 05:19:04;;;;;;;3.33;1.50;;;-0.80;99.90;;;;;;5069709;28;20032;-77
2024/01/14 05:21:29;;;;;;;3.90;2.23;;;-0.80;99.90;;;;;;5070498;28;21240;-76
2024/01/14 05:23:55;;;;;;;4.47;1.90;;;-0.90;99.90;;;;;;5071472;28;20062;-77
2024/01/14 05:26:24;;;;;;;5.70;2.20;;;-0.90;99.90;;;;;;5068063;28;20595;-76
2024/01/14 05:28:50;;;;;;;3.23;1.77;;;-1.00;99.90;;;;;;5069554;28;24107;-76
2024/01/14 05:31:15;;;;;;;3.40;2.03;;;-1.00;99.90;;;;;;5070519;28;20036;-76
2024/01/14 05:33:41;;;;;;;3.95;1.63;;;-1.00;99.90;;;;;;5069274;28;20036;-76
2024/01/14 05:36:07;;;;;;;3.65;1.77;;;-0.90;99.90;;;;;;5065370;28;20060;-77
2024/01/14 05:38:33;;;;;;;4.70;2.40;;;-0.90;99.90;;;;;;5068010;28;20039;-77
2024/01/14 05:40:58;;;;;;;5.80;2.13;;;-0.90;99.90;;;;;;5070741;28;20351;-76
2024/01/14 05:43:24;;;;;;;4.17;1.90;;;-1.30;99.90;;;;;;5071162;28;20036;-77
2024/01/14 05:45:50;;;;;;;5.20;2.38;;;-1.40;99.90;;;;;;5071892;28;20032;-76
2024/01/14 05:48:15;;;;;;;3.33;1.67;;;-1.20;99.90;;;;;;5069301;28;20101;-76
2024/01/14 05:50:41;;;;;;;4.27;2.10;;;-1.20;99.90;;;;;;5070584;28;20054;-77
2024/01/14 05:53:07;;;;;;;6.77;2.17;;;-1.00;99.90;;;;;;5069786;28;20085;-76
2024/01/14 05:55:32;;;;;;;3.93;2.00;;;-0.80;99.90;;;;;;5071586;28;20483;-76
2024/01/14 05:57:58;;;;;;;5.13;2.23;;;-0.90;99.90;;;;;;5068821;28;20082;-76
2024/01/14 06:00:24;;;;;;;4.53;1.70;;;-0.90;99.90;;;;;;5071791;28;20553;-76
2024/01/14 06:02:49;;;;;;;6.80;2.10;;;-0.90;99.90;;;;;;5070452;28;20032;-77
2024/01/14 06:05:15;;;;;;;4.80;2.00;;;-1.00;99.90;;;;;;5068799;28;20945;-76
2024/01/14 06:07:41;;;;;;;3.87;1.67;;;-1.00;99.90;;;;;;5068095;28;20032;-77
2024/01/14 06:10:08;;;;;;;3.43;1.73;;;-0.90;99.90;;;;;;5068750;28;20076;-77
2024/01/14 06:12:34;;;;;;;5.50;1.87;;;-0.90;99.90;;;;;;5069328;28;20051;-77
2024/01/14 06:15:00;;;;;;;4.50;1.93;;;-1.00;99.90;;;;;;5069949;28;20671;-77
2024/01/14 06:17:25;;;;;;;7.07;2.20;;;-1.00;99.90;;;;;;5068737;28;20032;-77
2024/01/14 06:19:51;;;;;;;5.27;2.30;;;-1.20;99.90;;;;;;5065801;28;21085;-77
2024/01/14 06:22:16;;;;;;;5.97;2.15;;;-1.10;99.90;;;;;;5066986;28;20537;-77
2024/01/14 06:24:44;;;;;;;6.73;2.67;;;-1.20;99.90;;;;;;5067832;28;20036;-77
2024/01/14 06:27:10;;;;;;;4.67;2.23;;;-1.30;99.90;;;;;;5065408;28;20070;-77
2024/01/14 06:29:36;;;;;;;4.60;1.63;;;-1.70;99.90;;;;;;5066167;28;20695;-77
2024/01/14 06:32:01;;;;;;;4.20;2.20;;;-1.60;99.90;;;;;;5067575;28;20020;-77
2024/01/14 06:34:27;;;;;;;4.80;2.30;;;-1.30;99.90;;;;;;5065905;28;20054;-77
2024/01/14 06:36:53;;;;;;;5.20;2.00;;;-1.30;99.90;;;;;;5068636;28;20024;-77
2024/01/14 06:39:19;;;;;;;4.70;1.83;;;-1.30;99.90;;;;;;5069289;28;20039;-77
2024/01/14 06:41:45;;;;;;;4.37;1.57;;;-1.30;99.90;;;;;;5069289;28;20591;-77
2024/01/14 06:44:10;;;;;;;4.37;2.00;;;-1.20;99.90;;;;;;5070114;28;20096;-77
2024/01/14 06:46:42;;;;;;;5.30;1.90;;;-1.10;99.90;;;;;;5066754;28;20028;-77
2024/01/14 06:49:08;;;;;;;5.20;2.20;;;-1.10;99.90;;;;;;5067365;28;20089;-77
2024/01/14 06:51:40;;;;;;;7.27;2.20;;;-1.20;99.90;;;;;;5067212;28;20024;-77
2024/01/14 06:54:06;;;;;;;4.67;1.93;;;-1.10;99.90;;;;;;5066304;28;20091;-77
2024/01/14 06:56:32;;;;;;;4.00;1.90;;;-1.20;99.90;;;;;;5066083;28;20139;-77
2024/01/14 06:58:58;;;;;;;4.23;1.90;;;-1.10;99.90;;;;;;5066688;28;21192;-77
2024/01/14 07:01:24;;;;;;;5.57;1.90;;;-1.10;99.90;;;;;;5069052;28;20042;-77
2024/01/14 07:03:49;;;;;;;3.00;1.60;;;-1.10;99.90;;;;;;5068465;28;20036;-77
2024/01/14 07:06:15;;;;;;;6.00;2.73;;;-1.20;99.90;;;;;;5067018;28;20047;-77
2024/01/14 07:08:42;;;;;;;5.57;2.53;;;-1.10;99.90;;;;;;5069376;28;20120;-77
2024/01/14 07:11:08;;;;;;;4.20;1.93;;;-1.30;99.90;;;;;;5067940;28;20089;-77
2024/01/14 07:13:34;;;;;;;4.87;2.13;;;-1.40;99.90;;;;;;5069203;28;20042;-77
2024/01/14 07:15:59;;;;;;;9.73;2.93;;;-1.40;99.90;;;;;;5066854;28;20366;-77
2024/01/14 07:18:25;;;;;;;5.25;2.25;;;-1.60;99.90;;;;;;5065685;28;20648;-78
2024/01/14 07:20:51;;;;;;;2.40;1.30;;;-1.50;99.90;;;;;;5065463;28;20028;-77
2024/01/14 07:23:17;;;;;;;5.10;1.97;;;-1.40;99.90;;;;;;5066388;28;20065;-77
2024/01/14 07:25:43;;;;;;;3.63;1.47;;;-1.20;99.90;;;;;;5065950;28;20051;-77
2024/01/14 07:28:08;;;;;;;4.07;2.07;;;-1.30;99.90;;;;;;5067332;28;20343;-77
2024/01/14 07:30:34;;;;;;;4.77;1.73;;;-1.20;99.90;;;;;;5064970;28;20558;-76
2024/01/14 07:33:00;;;;;;;5.23;2.03;;;-1.10;99.90;;;;;;5066612;28;20562;-77
2024/01/14 07:35:26;;;;;;;4.07;1.57;;;-1.10;99.90;;;;;;5065576;28;20588;-78
2024/01/14 07:37:52;;;;;;;3.43;1.60;;;-1.00;99.90;;;;;;5067445;28;20043;-77
2024/01/14 07:40:18;;;;;;;4.23;1.80;;;-1.10;99.90;;;;;;5069504;28;20046;-77
2024/01/14 07:42:43;;;;;;;3.67;1.63;;;-1.00;99.90;;;;;;5067048;28;20028;-77
2024/01/14 07:45:09;;;;;;;4.33;2.00;;;-1.10;99.90;;;;;;5068229;28;20043;-77
2024/01/14 07:47:35;;;;;;;4.80;1.60;;;-1.10;99.90;;;;;;5065548;28;20105;-77
2024/01/14 07:50:00;;;;;;;5.03;2.10;;;-1.10;99.90;;;;;;5067385;28;20065;-77
2024/01/14 07:52:27;;;;;;;6.37;2.73;;;-1.10;99.90;;;;;;5069247;28;20036;-77
2024/01/14 07:54:53;;;;;;;5.83;2.20;;;-1.10;99.90;;;;;;5067938;28;20052;-77
2024/01/14 07:57:18;;;;;;;4.17;1.73;;;-1.20;99.90;;;;;;5068348;28;20072;-77
2024/01/14 07:59:44;;;;;;;56.75;23.80;;;-1.30;99.90;;;;;;5069696;28;20035;-77
2024/01/14 08:02:10;;;;;;;31.67;11.03;;;-1.20;99.90;;;;;;5070088;28;20059;-77
2024/01/14 08:04:35;;;;;;;21.53;10.90;;;-1.20;99.90;;;;;;5072047;28;20039;-77
2024/01/14 08:07:01;;;;;;;13.33;5.60;;;-1.20;99.90;;;;;;5072755;28;20028;-78
2024/01/14 08:09:27;;;;;;;9.50;3.43;;;-1.20;99.90;;;;;;5070786;28;20039;-77
2024/01/14 08:11:52;;;;;;;20.17;10.93;;;-1.20;99.90;;;;;;5070628;28;20036;-77
2024/01/14 08:14:18;;;;;;;11.00;6.73;;;-1.20;99.90;;;;;;5072655;28;20047;-77
2024/01/14 08:16:43;;;;;;;10.03;4.90;;;-1.40;99.90;;;;;;5069648;28;21025;-77
2024/01/14 08:19:10;;;;;;;7.37;4.00;;;-1.70;99.90;;;;;;5070990;28;20046;-77
2024/01/14 08:21:35;;;;;;;8.13;3.00;;;-1.80;99.90;;;;;;5072061;28;20028;-77
2024/01/14 08:24:03;;;;;;;5.40;2.50;;;-1.70;99.90;;;;;;5071366;28;20452;-77
2024/01/14 08:26:29;;;;;;;6.00;2.60;;;-1.50;99.90;;;;;;5051802;28;20033;-76
2024/01/14 08:28:55;;;;;;;3.87;2.37;;;-1.40;99.90;;;;;;5071925;28;20024;-77
2024/01/14 08:31:20;;;;;;;6.82;2.83;;;-1.40;99.90;;;;;;5071363;28;20043;-77
2024/01/14 08:33:46;;;;;;;4.07;1.90;;;-1.20;99.90;;;;;;5070146;28;20042;-77
2024/01/14 08:36:12;;;;;;;6.80;3.47;;;-1.10;99.90;;;;;;5071538;28;21308;-77
2024/01/14 08:38:37;;;;;;;5.50;2.67;;;-1.10;99.90;;;;;;5070797;28;20032;-77
2024/01/14 08:41:03;;;;;;;5.03;2.30;;;-1.00;99.90;;;;;;5070534;28;20032;-77
2024/01/14 08:43:29;;;;;;;4.07;2.03;;;-1.00;99.90;;;;;;5072292;28;20047;-77
2024/01/14 08:45:54;;;;;;;5.90;2.20;;;-0.90;99.90;;;;;;5071220;28;20032;-77
2024/01/14 08:48:20;;;;;;;4.50;2.30;;;-0.90;99.90;;;;;;5071580;28;20035;-77
2024/01/14 08:50:46;;;;;;;5.17;2.80;;;-1.20;99.90;;;;;;5073327;28;20043;-77
2024/01/14 08:53:11;;;;;;;7.50;3.43;;;-1.40;99.90;;;;;;5072101;28;20082;-77
2024/01/14 08:55:37;;;;;;;5.43;2.80;;;-1.50;99.90;;;;;;5074422;28;20118;-77
2024/01/14 08:58:03;;;;;;;5.53;2.80;;;-1.30;99.90;;;;;;5076554;28;20654;-77
2024/01/14 09:00:28;;;;;;;5.93;2.40;;;-1.30;99.90;;;;;;5077580;28;20485;-77
2024/01/14 09:02:55;;;;;;;5.10;1.87;;;-1.30;99.90;;;;;;5072163;28;20031;-76
2024/01/14 09:05:22;;;;;;;8.50;1.90;;;-1.10;99.90;;;;;;5075065;28;20375;-77
2024/01/14 09:07:48;;;;;;;4.03;1.97;;;-1.00;99.90;;;;;;5075055;28;20057;-77
2024/01/14 09:10:13;;;;;;;4.67;1.83;;;-0.90;99.90;;;;;;5075732;28;20035;-77
2024/01/14 09:12:39;;;;;;;4.37;2.10;;;-0.80;99.90;;;;;;5073321;28;20481;-77
2024/01/14 09:15:05;;;;;;;4.33;2.10;;;-0.80;99.90;;;;;;5075600;28;20044;-77
2024/01/14 09:17:31;;;;;;;5.57;2.25;;;-0.80;99.90;;;;;;5056112;28;20039;-77
2024/01/14 09:19:57;;;;;;;4.78;1.85;;;-0.70;99.90;;;;;;5074722;28;20032;-77
2024/01/14 09:22:22;;;;;;;4.87;1.83;;;-0.60;99.90;;;;;;5075421;28;20024;-77
2024/01/14 09:24:48;;;;;;;5.73;2.77;;;-0.80;99.90;;;;;;5075368;28;20033;-77
2024/01/14 09:27:14;;;;;;;5.17;2.20;;;-0.90;99.90;;;;;;5074423;28;20122;-77
2024/01/14 09:29:40;;;;;;;5.97;2.70;;;-0.90;99.90;;;;;;5075056;28;20518;-77
2024/01/14 09:32:06;;;;;;;5.97;3.03;;;-0.90;99.90;;;;;;5075006;28;20036;-77
2024/01/14 09:34:31;;;;;;;6.90;2.63;;;-0.90;99.90;;;;;;5075675;28;20564;-77
2024/01/14 09:36:57;;;;;;;7.13;3.28;;;-0.80;99.90;;;;;;5076721;28;20032;-77
2024/01/14 09:39:23;;;;;;;5.53;3.00;;;-0.70;99.90;;;;;;5076975;28;20448;-77
2024/01/14 09:42:00;;;;;;;7.00;2.88;;;-0.70;99.90;;;;;;5077509;28;20672;-77
2024/01/14 09:44:26;;;;;;;6.95;2.38;;;-0.70;99.90;;;;;;5074797;28;20848;-77
2024/01/14 09:46:51;;;;;;;4.97;2.28;;;-0.70;99.90;;;;;;5074697;28;20025;-76
2024/01/14 09:49:19;;;;;;;5.37;2.33;;;-0.60;99.90;;;;;;5074946;28;20032;-77
2024/01/14 09:51:47;;;;;;;4.70;2.17;;;-0.60;99.90;;;;;;5076457;28;20055;-77
2024/01/14 09:54:13;;;;;;;6.23;2.67;;;-0.60;99.90;;;;;;5076148;28;20055;-77
2024/01/14 09:56:41;;;;;;;6.87;2.90;;;-0.60;99.90;;;;;;5072058;28;20036;-77
2024/01/14 09:59:07;;;;;;;4.80;2.47;;;-0.60;99.90;;;;;;5073275;28;20043;-77
2024/01/14 10:01:34;;;;;;;4.63;2.07;;;-0.50;99.90;;;;;;5073369;28;20024;-77
2024/01/14 10:04:01;;;;;;;6.63;3.15;;;-0.40;99.90;;;;;;5071493;28;25570;-78
2024/01/14 10:06:30;;;;;;;4.53;2.20;;;-0.50;99.90;;;;;;5072323;28;20125;-77
2024/01/14 10:08:57;;;;;;;5.00;2.65;;;-0.60;99.90;;;;;;5073851;28;20043;-77
2024/01/14 10:11:23;;;;;;;5.47;2.10;;;-0.70;99.90;;;;;;5072538;28;20047;-76
2024/01/14 10:13:49;;;;;;;11.93;3.07;;;-0.60;99.90;;;;;;5073109;28;20390;-77
2024/01/14 10:16:15;;;;;;;4.60;2.60;;;-0.60;99.90;;;;;;5072937;28;20112;-77
2024/01/14 10:18:42;;;;;;;6.70;3.43;;;-0.50;99.90;;;;;;5071526;28;20122;-77
2024/01/14 10:21:09;;;;;;;5.97;2.53;;;-0.40;99.90;;;;;;5072568;28;20685;-76
2024/01/14 10:23:35;;;;;;;6.30;3.10;;;-0.30;99.90;;;;;;5073468;28;20067;-76
2024/01/14 10:26:02;;;;;;;4.43;1.93;;;-0.40;99.90;;;;;;5070770;28;20044;-78
2024/01/14 10:28:35;;;;;;;4.97;2.03;;;-0.30;99.90;;;;;;5073110;28;20016;-77
2024/01/14 10:31:08;;;;;;;4.03;1.63;;;-0.30;99.90;;;;;;5072645;28;20036;-77
2024/01/14 10:33:35;;;;;;;6.25;2.53;;;-0.20;99.90;;;;;;5054889;28;20031;-77
2024/01/14 10:36:06;;;;;;;7.57;2.70;;;-0.20;99.90;;;;;;5069446;28;20047;-77
2024/01/14 10:38:31;;;;;;;7.00;3.25;;;-0.10;99.90;;;;;;5071567;28;20060;-76
2024/01/14 10:40:57;;;;;;;6.93;3.67;;;-0.10;99.90;;;;;;5072699;28;20095;-77
2024/01/14 10:43:26;;;;;;;8.20;4.47;;;0.00;99.90;;;;;;5071923;28;20035;-77
2024/01/14 10:45:52;;;;;;;5.35;3.00;;;0.00;99.90;;;;;;5068680;28;20060;-77
2024/01/14 10:48:27;;;;;;;6.37;3.53;;;0.20;99.90;;;;;;5072221;28;20162;-77
2024/01/14 10:50:56;;;;;;;7.38;3.40;;;0.30;99.90;;;;;;5072529;28;20510;-77
2024/01/14 10:53:26;;;;;;;6.57;2.97;;;0.30;99.90;;;;;;5071669;28;20040;-77
2024/01/14 10:56:03;;;;;;;4.55;2.65;;;0.40;99.90;;;;;;5070868;28;20051;-77
2024/01/14 10:58:36;;;;;;;8.50;5.50;;;0.50;99.90;;;;;;5071722;28;20085;-77
2024/01/14 11:01:04;;;;;;;7.93;4.38;;;0.70;99.90;;;;;;5072680;28;20059;-79
2024/01/14 11:03:31;;;;;;;7.32;4.18;;;0.70;99.90;;;;;;5070832;28;20096;-79
2024/01/14 11:05:58;;;;;;;23.80;10.35;;;0.80;99.90;;;;;;5075689;28;20690;-77
2024/01/14 11:08:24;;;;;;;19.98;10.45;;;0.90;99.90;;;;;;5070547;28;20517;-77
2024/01/14 11:10:52;;;;;;;18.83;9.65;;;1.00;99.90;;;;;;5067944;28;20035;-77
2024/01/14 11:13:35;;;;;;;14.88;6.60;;;1.20;99.90;;;;;;5071018;28;20056;-77
2024/01/14 11:16:28;;;;;;;16.40;7.03;;;1.20;99.90;;;;;;5069861;28;20048;-79
2024/01/14 11:19:12;;;;;;;11.52;5.60;;;1.20;99.90;;;;;;5072442;28;20047;-77
2024/01/14 11:21:43;;;;;;;62.13;29.02;;;1.40;99.80;;;;;;5068303;28;20120;-76
2024/01/14 11:24:09;;;;;;;39.75;18.92;;;1.60;99.70;;;;;;5068556;28;20595;-77
2024/01/14 11:26:36;;;;;;;23.23;11.98;;;1.60;99.40;;;;;;5069499;28;20051;-77
2024/01/14 11:29:03;;;;;;;10.32;4.78;;;1.60;99.90;;;;;;5068391;28;20124;-77
2024/01/14 11:32:02;;;;;;;112.13;57.92;;;1.70;99.50;;;;;;5066585;28;20134;-76
2024/01/14 11:34:46;;;;;;;51.38;21.75;;;2.00;99.10;;;;;;5071231;28;20044;-76
2024/01/14 11:37:36;;;;;;;25.15;12.68;;;1.90;98.80;;;;;;5068877;28;20082;-76
2024/01/14 11:40:07;;;;;;;11.18;5.25;;;2.00;98.30;;;;;;5059930;28;20127;-77
2024/01/14 11:42:36;;;;;;;9.75;4.65;;;2.00;98.40;;;;;;5072186;28;20035;-77
2024/01/14 11:45:03;;;;;;;6.95;3.88;;;2.00;97.60;;;;;;5072297;28;20043;-77
2024/01/14 11:47:43;;;;;;;6.15;3.08;;;2.10;97.90;;;;;;5072091;28;20036;-77
2024/01/14 11:50:09;;;;;;;7.43;3.47;;;2.20;97.80;;;;;;5070289;28;20386;-76
2024/01/14 11:52:45;;;;;;;6.80;3.83;;;2.30;98.00;;;;;;5072408;28;20091;-76
2024/01/14 11:55:14;;;;;;;5.30;3.50;;;2.50;98.20;;;;;;5065149;28;20657;-77
2024/01/14 11:57:41;;;;;;;5.88;3.42;;;2.60;97.10;;;;;;5072881;28;20036;-77
2024/01/14 12:00:07;;;;;;;6.75;3.70;;;2.60;97.00;;;;;;5071243;28;20030;-77
2024/01/14 12:02:34;;;;;;;6.82;3.28;;;2.60;96.90;;;;;;5070852;28;20032;-77
2024/01/14 12:05:19;;;;;;;6.40;3.30;;;2.60;97.00;;;;;;5072014;28;20129;-76
2024/01/14 12:07:45;;;;;;;8.38;3.38;;;2.60;96.90;;;;;;5072405;28;20532;-77
2024/01/14 12:10:16;;;;;;;6.20;3.30;;;2.80;97.10;;;;;;5070501;28;20070;-76
2024/01/14 12:12:42;;;;;;;6.88;3.72;;;2.90;97.30;;;;;;5071464;28;20693;-76
2024/01/14 12:15:13;;;;;;;6.50;4.85;;;3.10;97.10;;;;;;5068655;28;20173;-77
2024/01/14 12:17:38;;;;;;;7.10;3.95;;;3.30;97.30;;;;;;5068407;28;20047;-77
2024/01/14 12:20:08;;;;;;;7.55;4.07;;;3.30;97.00;;;;;;5070467;28;20040;-77
2024/01/14 12:22:35;;;;;;;8.02;4.53;;;3.20;96.90;;;;;;5069985;28;20047;-76
2024/01/14 12:25:01;;;;;;;11.82;8.05;;;3.40;97.30;;;;;;5072230;28;20026;-76
2024/01/14 12:27:27;;;;;;;8.52;5.28;;;3.50;97.10;;;;;;5070485;28;20482;-77
2024/01/14 12:29:54;;;;;;;6.43;3.88;;;3.40;96.80;;;;;;5070972;28;20027;-77
2024/01/14 12:32:20;;;;;;;5.50;3.60;;;3.20;96.20;;;;;;5071831;28;20035;-76
2024/01/14 12:34:49;;;;;;;5.03;2.95;;;3.30;96.20;;;;;;5070394;28;20048;-76
2024/01/14 12:37:14;;;;;;;6.07;3.47;;;3.70;96.20;;;;;;5070535;28;20040;-75
2024/01/14 12:39:40;;;;;;;6.28;3.40;;;3.60;95.60;;;;;;5072777;28;20043;-75
2024/01/14 12:42:06;;;;;;;6.78;3.75;;;3.60;96.20;;;;;;5071046;28;20036;-75
2024/01/14 12:44:39;;;;;;;6.75;3.50;;;3.70;96.40;;;;;;5071239;28;20047;-75